sensor_id;sensor_type;location;lat;lon;timestamp;P1;durP1;ratioP1;P2;durP2;ratioP2
43325;SDS011;28920;59.862;30.636;2023-02-26T00:02:12;6.87;;;3.17;;
43325;SDS011;28920;59.862;30.636;2023-02-26T00:04:40;5.00;;;3.15;;
43325;SDS011;28920;59.862;30.636;2023-02-26T00:07:06;6.22;;;3.47;;
43325;SDS011;28920;59.862;30.636;2023-02-26T00:09:34;6.45;;;4.00;;
43325;SDS011;28920;59.862;30.636;2023-02-26T00:12:01;12.07;;;4.43;;
43325;SDS011;28920;59.862;30.636;2023-02-26T00:14:27;5.78;;;3.58;;
43325;SDS011;28920;59.862;30.636;2023-02-26T00:16:56;6.90;;;4.18;;
43325;SDS011;28920;59.862;30.636;2023-02-26T00:19:31;7.60;;;4.57;;
43325;SDS011;28920;59.862;30.636;2023-02-26T00:21:58;8.15;;;4.90;;
43325;SDS011;28920;59.862;30.636;2023-02-26T00:24:25;5.68;;;3.60;;
43325;SDS011;28920;59.862;30.636;2023-02-26T00:26:52;8.45;;;4.65;;
43325;SDS011;28920;59.862;30.636;2023-02-26T00:29:19;7.50;;;3.78;;
43325;SDS011;28920;59.862;30.636;2023-02-26T00:31:46;9.63;;;3.72;;
43325;SDS011;28920;59.862;30.636;2023-02-26T00:34:13;7.62;;;3.95;;
43325;SDS011;28920;59.862;30.636;2023-02-26T00:36:42;10.55;;;5.00;;
43325;SDS011;28920;59.862;30.636;2023-02-26T00:39:13;10.98;;;3.75;;
43325;SDS011;28920;59.862;30.636;2023-02-26T00:41:41;7.93;;;3.40;;
43325;SDS011;28920;59.862;30.636;2023-02-26T00:44:08;8.90;;;4.12;;
43325;SDS011;28920;59.862;30.636;2023-02-26T00:46:37;7.68;;;3.85;;
43325;SDS011;28920;59.862;30.636;2023-02-26T00:49:09;8.68;;;3.83;;
43325;SDS011;28920;59.862;30.636;2023-02-26T00:51:40;6.32;;;3.97;;
43325;SDS011;28920;59.862;30.636;2023-02-26T00:54:11;5.97;;;3.87;;
43325;SDS011;28920;59.862;30.636;2023-02-26T00:56:39;5.95;;;3.85;;
43325;SDS011;28920;59.862;30.636;2023-02-26T00:59:05;8.93;;;4.82;;
43325;SDS011;28920;59.862;30.636;2023-02-26T01:01:35;6.55;;;4.12;;
43325;SDS011;28920;59.862;30.636;2023-02-26T01:04:01;9.88;;;4.82;;
43325;SDS011;28920;59.862;30.636;2023-02-26T01:06:29;6.50;;;3.40;;
43325;SDS011;28920;59.862;30.636;2023-02-26T01:08:58;5.68;;;3.85;;
43325;SDS011;28920;59.862;30.636;2023-02-26T01:11:27;7.37;;;4.37;;
43325;SDS011;28920;59.862;30.636;2023-02-26T01:13:54;8.50;;;4.03;;
43325;SDS011;28920;59.862;30.636;2023-02-26T01:16:23;9.25;;;4.55;;
43325;SDS011;28920;59.862;30.636;2023-02-26T01:18:55;6.95;;;3.95;;
43325;SDS011;28920;59.862;30.636;2023-02-26T01:21:27;7.40;;;3.75;;
43325;SDS011;28920;59.862;30.636;2023-02-26T01:23:56;6.50;;;3.95;;
43325;SDS011;28920;59.862;30.636;2023-02-26T01:26:25;9.43;;;4.70;;
43325;SDS011;28920;59.862;30.636;2023-02-26T01:28:52;10.57;;;4.43;;
43325;SDS011;28920;59.862;30.636;2023-02-26T01:31:31;10.95;;;4.85;;
43325;SDS011;28920;59.862;30.636;2023-02-26T01:34:02;7.77;;;4.40;;
43325;SDS011;28920;59.862;30.636;2023-02-26T01:36:31;8.23;;;5.12;;
43325;SDS011;28920;59.862;30.636;2023-02-26T01:39:00;8.65;;;3.92;;
43325;SDS011;28920;59.862;30.636;2023-02-26T01:41:29;7.35;;;4.62;;
43325;SDS011;28920;59.862;30.636;2023-02-26T01:43:59;7.93;;;4.20;;
43325;SDS011;28920;59.862;30.636;2023-02-26T01:46:30;7.78;;;4.18;;
43325;SDS011;28920;59.862;30.636;2023-02-26T01:48:59;11.40;;;5.00;;
43325;SDS011;28920;59.862;30.636;2023-02-26T01:54:19;9.02;;;4.40;;
43325;SDS011;28920;59.862;30.636;2023-02-26T01:56:46;8.75;;;4.07;;
43325;SDS011;28920;59.862;30.636;2023-02-26T01:59:13;9.95;;;4.35;;
43325;SDS011;28920;59.862;30.636;2023-02-26T02:01:41;7.82;;;4.30;;
43325;SDS011;28920;59.862;30.636;2023-02-26T02:04:09;13.88;;;4.35;;
43325;SDS011;28920;59.862;30.636;2023-02-26T02:06:36;5.03;;;3.17;;
43325;SDS011;28920;59.862;30.636;2023-02-26T02:09:04;10.13;;;5.22;;
43325;SDS011;28920;59.862;30.636;2023-02-26T02:11:32;9.25;;;4.50;;
43325;SDS011;28920;59.862;30.636;2023-02-26T02:14:00;10.93;;;4.80;;
43325;SDS011;28920;59.862;30.636;2023-02-26T02:16:36;10.07;;;4.35;;
43325;SDS011;28920;59.862;30.636;2023-02-26T02:19:17;10.48;;;4.65;;
43325;SDS011;28920;59.862;30.636;2023-02-26T02:21:48;8.15;;;4.18;;
43325;SDS011;28920;59.862;30.636;2023-02-26T02:24:19;8.93;;;4.57;;
43325;SDS011;28920;59.862;30.636;2023-02-26T02:26:59;6.93;;;4.22;;
43325;SDS011;28920;59.862;30.636;2023-02-26T02:29:33;7.28;;;4.47;;
43325;SDS011;28920;59.862;30.636;2023-02-26T02:32:08;7.72;;;3.83;;
43325;SDS011;28920;59.862;30.636;2023-02-26T02:34:36;6.80;;;3.90;;
43325;SDS011;28920;59.862;30.636;2023-02-26T02:37:04;9.00;;;4.20;;
43325;SDS011;28920;59.862;30.636;2023-02-26T02:39:32;8.20;;;3.78;;
43325;SDS011;28920;59.862;30.636;2023-02-26T02:42:01;6.40;;;3.83;;
43325;SDS011;28920;59.862;30.636;2023-02-26T02:44:28;9.02;;;4.55;;
43325;SDS011;28920;59.862;30.636;2023-02-26T02:46:57;9.50;;;4.68;;
43325;SDS011;28920;59.862;30.636;2023-02-26T02:49:26;9.50;;;4.32;;
43325;SDS011;28920;59.862;30.636;2023-02-26T02:51:54;14.05;;;4.53;;
43325;SDS011;28920;59.862;30.636;2023-02-26T02:54:23;8.63;;;4.32;;
43325;SDS011;28920;59.862;30.636;2023-02-26T02:56:51;8.55;;;4.82;;
43325;SDS011;28920;59.862;30.636;2023-02-26T02:59:21;8.80;;;4.28;;
43325;SDS011;28920;59.862;30.636;2023-02-26T03:01:49;9.00;;;4.50;;
43325;SDS011;28920;59.862;30.636;2023-02-26T03:04:17;10.48;;;5.10;;
43325;SDS011;28920;59.862;30.636;2023-02-26T03:06:44;12.35;;;5.20;;
43325;SDS011;28920;59.862;30.636;2023-02-26T03:09:17;10.13;;;4.93;;
43325;SDS011;28920;59.862;30.636;2023-02-26T03:11:44;9.63;;;5.25;;
43325;SDS011;28920;59.862;30.636;2023-02-26T03:14:11;12.25;;;5.35;;
43325;SDS011;28920;59.862;30.636;2023-02-26T03:16:47;9.13;;;5.43;;
43325;SDS011;28920;59.862;30.636;2023-02-26T03:19:17;10.80;;;5.62;;
43325;SDS011;28920;59.862;30.636;2023-02-26T03:21:49;9.27;;;5.65;;
43325;SDS011;28920;59.862;30.636;2023-02-26T03:24:19;13.32;;;5.93;;
43325;SDS011;28920;59.862;30.636;2023-02-26T03:26:51;11.35;;;5.05;;
43325;SDS011;28920;59.862;30.636;2023-02-26T03:29:21;10.97;;;5.27;;
43325;SDS011;28920;59.862;30.636;2023-02-26T03:31:54;8.38;;;4.78;;
43325;SDS011;28920;59.862;30.636;2023-02-26T03:34:22;8.57;;;4.50;;
43325;SDS011;28920;59.862;30.636;2023-02-26T03:36:52;8.68;;;4.40;;
43325;SDS011;28920;59.862;30.636;2023-02-26T03:39:24;9.32;;;4.45;;
43325;SDS011;28920;59.862;30.636;2023-02-26T03:41:54;11.88;;;5.12;;
43325;SDS011;28920;59.862;30.636;2023-02-26T03:44:24;6.75;;;3.85;;
43325;SDS011;28920;59.862;30.636;2023-02-26T03:46:55;8.77;;;4.57;;
43325;SDS011;28920;59.862;30.636;2023-02-26T03:49:25;7.00;;;3.67;;
43325;SDS011;28920;59.862;30.636;2023-02-26T03:51:53;10.93;;;5.10;;
43325;SDS011;28920;59.862;30.636;2023-02-26T03:54:23;9.48;;;4.80;;
43325;SDS011;28920;59.862;30.636;2023-02-26T03:56:54;15.27;;;4.43;;
43325;SDS011;28920;59.862;30.636;2023-02-26T03:59:22;12.30;;;6.22;;
43325;SDS011;28920;59.862;30.636;2023-02-26T04:01:53;10.75;;;5.32;;
43325;SDS011;28920;59.862;30.636;2023-02-26T04:04:23;7.72;;;4.45;;
43325;SDS011;28920;59.862;30.636;2023-02-26T04:06:50;8.20;;;4.50;;
43325;SDS011;28920;59.862;30.636;2023-02-26T04:09:19;7.65;;;4.15;;
43325;SDS011;28920;59.862;30.636;2023-02-26T04:11:46;7.32;;;4.07;;
43325;SDS011;28920;59.862;30.636;2023-02-26T04:14:14;8.25;;;3.90;;
43325;SDS011;28920;59.862;30.636;2023-02-26T04:16:41;9.70;;;4.00;;
43325;SDS011;28920;59.862;30.636;2023-02-26T04:19:09;11.23;;;4.10;;
43325;SDS011;28920;59.862;30.636;2023-02-26T04:21:36;8.38;;;3.45;;
43325;SDS011;28920;59.862;30.636;2023-02-26T04:24:03;9.30;;;4.30;;
43325;SDS011;28920;59.862;30.636;2023-02-26T04:26:31;8.40;;;3.62;;
43325;SDS011;28920;59.862;30.636;2023-02-26T04:28:57;7.68;;;4.30;;
43325;SDS011;28920;59.862;30.636;2023-02-26T04:31:24;7.32;;;3.53;;
43325;SDS011;28920;59.862;30.636;2023-02-26T04:33:51;7.72;;;5.50;;
43325;SDS011;28920;59.862;30.636;2023-02-26T04:36:19;5.55;;;2.80;;
43325;SDS011;28920;59.862;30.636;2023-02-26T04:38:45;6.90;;;4.03;;
43325;SDS011;28920;59.862;30.636;2023-02-26T04:41:12;7.00;;;2.67;;
43325;SDS011;28920;59.862;30.636;2023-02-26T04:43:40;6.68;;;3.50;;
43325;SDS011;28920;59.862;30.636;2023-02-26T04:46:08;4.25;;;2.55;;
43325;SDS011;28920;59.862;30.636;2023-02-26T04:48:35;4.05;;;2.70;;
43325;SDS011;28920;59.862;30.636;2023-02-26T04:51:02;4.68;;;2.95;;
43325;SDS011;28920;59.862;30.636;2023-02-26T04:53:29;6.18;;;3.08;;
43325;SDS011;28920;59.862;30.636;2023-02-26T04:55:55;5.72;;;3.22;;
43325;SDS011;28920;59.862;30.636;2023-02-26T04:58:22;5.93;;;3.08;;
43325;SDS011;28920;59.862;30.636;2023-02-26T05:00:50;3.97;;;2.67;;
43325;SDS011;28920;59.862;30.636;2023-02-26T05:03:19;7.68;;;3.35;;
43325;SDS011;28920;59.862;30.636;2023-02-26T05:05:46;7.28;;;3.33;;
43325;SDS011;28920;59.862;30.636;2023-02-26T05:08:13;5.57;;;2.75;;
43325;SDS011;28920;59.862;30.636;2023-02-26T05:10:40;4.43;;;3.20;;
43325;SDS011;28920;59.862;30.636;2023-02-26T05:13:07;5.82;;;2.92;;
43325;SDS011;28920;59.862;30.636;2023-02-26T05:15:34;5.55;;;2.95;;
43325;SDS011;28920;59.862;30.636;2023-02-26T05:18:01;5.18;;;2.60;;
43325;SDS011;28920;59.862;30.636;2023-02-26T05:20:28;4.68;;;3.12;;
43325;SDS011;28920;59.862;30.636;2023-02-26T05:22:55;5.28;;;2.85;;
43325;SDS011;28920;59.862;30.636;2023-02-26T05:25:22;5.65;;;2.50;;
43325;SDS011;28920;59.862;30.636;2023-02-26T05:27:49;7.57;;;4.20;;
43325;SDS011;28920;59.862;30.636;2023-02-26T05:30:16;6.62;;;3.03;;
43325;SDS011;28920;59.862;30.636;2023-02-26T05:32:43;5.00;;;2.87;;
43325;SDS011;28920;59.862;30.636;2023-02-26T05:35:10;5.03;;;3.03;;
43325;SDS011;28920;59.862;30.636;2023-02-26T05:37:37;7.32;;;3.28;;
43325;SDS011;28920;59.862;30.636;2023-02-26T05:40:05;6.32;;;2.83;;
43325;SDS011;28920;59.862;30.636;2023-02-26T05:42:34;5.32;;;2.87;;
43325;SDS011;28920;59.862;30.636;2023-02-26T05:45:00;5.82;;;3.30;;
43325;SDS011;28920;59.862;30.636;2023-02-26T05:47:29;4.22;;;2.53;;
43325;SDS011;28920;59.862;30.636;2023-02-26T05:49:55;4.60;;;2.60;;
43325;SDS011;28920;59.862;30.636;2023-02-26T05:52:23;5.03;;;3.05;;
43325;SDS011;28920;59.862;30.636;2023-02-26T05:54:49;5.37;;;2.83;;
43325;SDS011;28920;59.862;30.636;2023-02-26T05:57:16;5.90;;;2.70;;
43325;SDS011;28920;59.862;30.636;2023-02-26T05:59:42;9.80;;;5.80;;
43325;SDS011;28920;59.862;30.636;2023-02-26T06:02:09;7.20;;;3.03;;
43325;SDS011;28920;59.862;30.636;2023-02-26T06:04:36;7.60;;;2.75;;
43325;SDS011;28920;59.862;30.636;2023-02-26T06:07:03;5.90;;;2.85;;
43325;SDS011;28920;59.862;30.636;2023-02-26T06:09:30;7.35;;;3.72;;
43325;SDS011;28920;59.862;30.636;2023-02-26T06:11:57;6.78;;;2.83;;
43325;SDS011;28920;59.862;30.636;2023-02-26T06:14:24;11.50;;;3.42;;
43325;SDS011;28920;59.862;30.636;2023-02-26T06:16:50;4.93;;;1.98;;
43325;SDS011;28920;59.862;30.636;2023-02-26T06:19:17;5.12;;;2.80;;
43325;SDS011;28920;59.862;30.636;2023-02-26T06:21:46;5.37;;;2.80;;
43325;SDS011;28920;59.862;30.636;2023-02-26T06:24:12;6.70;;;3.65;;
43325;SDS011;28920;59.862;30.636;2023-02-26T06:26:40;4.82;;;2.65;;
43325;SDS011;28920;59.862;30.636;2023-02-26T06:29:06;5.60;;;2.95;;
43325;SDS011;28920;59.862;30.636;2023-02-26T06:31:33;5.07;;;2.72;;
43325;SDS011;28920;59.862;30.636;2023-02-26T06:34:00;6.70;;;3.17;;
43325;SDS011;28920;59.862;30.636;2023-02-26T06:36:27;5.95;;;3.70;;
43325;SDS011;28920;59.862;30.636;2023-02-26T06:38:53;7.00;;;4.05;;
43325;SDS011;28920;59.862;30.636;2023-02-26T06:41:20;4.53;;;2.42;;
43325;SDS011;28920;59.862;30.636;2023-02-26T06:43:47;7.05;;;2.87;;
43325;SDS011;28920;59.862;30.636;2023-02-26T06:46:14;8.40;;;2.87;;
43325;SDS011;28920;59.862;30.636;2023-02-26T06:48:40;3.95;;;2.40;;
43325;SDS011;28920;59.862;30.636;2023-02-26T06:51:07;8.07;;;2.42;;
43325;SDS011;28920;59.862;30.636;2023-02-26T06:53:34;5.03;;;3.20;;
43325;SDS011;28920;59.862;30.636;2023-02-26T06:56:01;3.40;;;1.95;;
43325;SDS011;28920;59.862;30.636;2023-02-26T06:58:28;6.12;;;3.08;;
43325;SDS011;28920;59.862;30.636;2023-02-26T07:00:55;4.25;;;2.22;;
43325;SDS011;28920;59.862;30.636;2023-02-26T07:03:22;5.60;;;3.03;;
43325;SDS011;28920;59.862;30.636;2023-02-26T07:05:48;4.10;;;2.87;;
43325;SDS011;28920;59.862;30.636;2023-02-26T07:08:15;9.23;;;4.07;;
43325;SDS011;28920;59.862;30.636;2023-02-26T07:10:42;6.65;;;2.97;;
43325;SDS011;28920;59.862;30.636;2023-02-26T07:13:08;4.62;;;2.50;;
43325;SDS011;28920;59.862;30.636;2023-02-26T07:15:35;4.72;;;2.53;;
43325;SDS011;28920;59.862;30.636;2023-02-26T07:18:02;5.30;;;2.70;;
43325;SDS011;28920;59.862;30.636;2023-02-26T07:20:29;6.00;;;2.85;;
43325;SDS011;28920;59.862;30.636;2023-02-26T07:22:56;6.85;;;3.47;;
43325;SDS011;28920;59.862;30.636;2023-02-26T07:25:23;4.70;;;2.37;;
43325;SDS011;28920;59.862;30.636;2023-02-26T07:27:50;6.18;;;3.45;;
43325;SDS011;28920;59.862;30.636;2023-02-26T07:30:16;5.78;;;3.60;;
43325;SDS011;28920;59.862;30.636;2023-02-26T07:32:43;8.30;;;2.97;;
43325;SDS011;28920;59.862;30.636;2023-02-26T07:35:11;8.93;;;2.65;;
43325;SDS011;28920;59.862;30.636;2023-02-26T07:37:37;4.45;;;2.33;;
43325;SDS011;28920;59.862;30.636;2023-02-26T07:40:04;5.07;;;2.90;;
43325;SDS011;28920;59.862;30.636;2023-02-26T07:42:31;7.20;;;4.15;;
43325;SDS011;28920;59.862;30.636;2023-02-26T07:44:58;6.12;;;2.92;;
43325;SDS011;28920;59.862;30.636;2023-02-26T07:47:25;5.55;;;2.22;;
43325;SDS011;28920;59.862;30.636;2023-02-26T07:49:51;4.78;;;3.10;;
43325;SDS011;28920;59.862;30.636;2023-02-26T07:52:19;6.05;;;2.85;;
43325;SDS011;28920;59.862;30.636;2023-02-26T07:54:46;6.62;;;2.97;;
43325;SDS011;28920;59.862;30.636;2023-02-26T07:57:12;10.27;;;3.70;;
43325;SDS011;28920;59.862;30.636;2023-02-26T07:59:39;6.37;;;3.33;;
43325;SDS011;28920;59.862;30.636;2023-02-26T08:02:06;6.15;;;2.70;;
43325;SDS011;28920;59.862;30.636;2023-02-26T08:04:32;6.00;;;2.92;;
43325;SDS011;28920;59.862;30.636;2023-02-26T08:06:59;9.25;;;4.20;;
43325;SDS011;28920;59.862;30.636;2023-02-26T08:09:27;4.43;;;2.83;;
43325;SDS011;28920;59.862;30.636;2023-02-26T08:11:53;7.45;;;3.37;;
43325;SDS011;28920;59.862;30.636;2023-02-26T08:14:20;8.82;;;3.22;;
43325;SDS011;28920;59.862;30.636;2023-02-26T08:16:47;7.28;;;3.70;;
43325;SDS011;28920;59.862;30.636;2023-02-26T08:19:13;6.78;;;4.10;;
43325;SDS011;28920;59.862;30.636;2023-02-26T08:21:40;6.72;;;4.15;;
43325;SDS011;28920;59.862;30.636;2023-02-26T08:24:06;5.97;;;3.85;;
43325;SDS011;28920;59.862;30.636;2023-02-26T08:26:35;7.40;;;3.70;;
43325;SDS011;28920;59.862;30.636;2023-02-26T08:29:02;5.20;;;2.58;;
43325;SDS011;28920;59.862;30.636;2023-02-26T08:31:29;8.23;;;3.92;;
43325;SDS011;28920;59.862;30.636;2023-02-26T08:33:56;5.35;;;2.90;;
43325;SDS011;28920;59.862;30.636;2023-02-26T08:36:23;4.25;;;2.40;;
43325;SDS011;28920;59.862;30.636;2023-02-26T08:38:50;5.20;;;3.33;;
43325;SDS011;28920;59.862;30.636;2023-02-26T08:41:17;9.15;;;3.25;;
43325;SDS011;28920;59.862;30.636;2023-02-26T08:43:44;5.95;;;3.20;;
43325;SDS011;28920;59.862;30.636;2023-02-26T08:46:10;8.05;;;3.30;;
43325;SDS011;28920;59.862;30.636;2023-02-26T08:48:37;3.85;;;2.53;;
43325;SDS011;28920;59.862;30.636;2023-02-26T08:51:04;3.58;;;2.55;;
43325;SDS011;28920;59.862;30.636;2023-02-26T08:53:30;6.60;;;3.55;;
43325;SDS011;28920;59.862;30.636;2023-02-26T08:55:57;9.45;;;3.65;;
43325;SDS011;28920;59.862;30.636;2023-02-26T08:58:24;6.75;;;3.55;;
43325;SDS011;28920;59.862;30.636;2023-02-26T09:00:51;8.20;;;3.53;;
43325;SDS011;28920;59.862;30.636;2023-02-26T09:03:18;5.60;;;3.05;;
43325;SDS011;28920;59.862;30.636;2023-02-26T09:05:45;6.95;;;3.40;;
43325;SDS011;28920;59.862;30.636;2023-02-26T09:08:12;7.32;;;4.28;;
43325;SDS011;28920;59.862;30.636;2023-02-26T09:10:40;7.57;;;3.53;;
43325;SDS011;28920;59.862;30.636;2023-02-26T09:13:07;6.53;;;3.62;;
43325;SDS011;28920;59.862;30.636;2023-02-26T09:15:34;7.12;;;3.20;;
43325;SDS011;28920;59.862;30.636;2023-02-26T09:18:01;5.85;;;3.47;;
43325;SDS011;28920;59.862;30.636;2023-02-26T09:20:28;4.28;;;3.00;;
43325;SDS011;28920;59.862;30.636;2023-02-26T09:22:55;5.82;;;3.47;;
43325;SDS011;28920;59.862;30.636;2023-02-26T09:25:21;6.80;;;3.00;;
43325;SDS011;28920;59.862;30.636;2023-02-26T09:27:49;5.93;;;3.12;;
43325;SDS011;28920;59.862;30.636;2023-02-26T09:30:15;8.13;;;2.95;;
43325;SDS011;28920;59.862;30.636;2023-02-26T09:32:42;6.87;;;2.72;;
43325;SDS011;28920;59.862;30.636;2023-02-26T09:35:10;6.10;;;2.90;;
43325;SDS011;28920;59.862;30.636;2023-02-26T09:37:36;6.10;;;3.25;;
43325;SDS011;28920;59.862;30.636;2023-02-26T09:40:04;4.37;;;3.03;;
43325;SDS011;28920;59.862;30.636;2023-02-26T09:42:36;4.10;;;2.62;;
43325;SDS011;28920;59.862;30.636;2023-02-26T09:45:09;5.03;;;2.47;;
43325;SDS011;28920;59.862;30.636;2023-02-26T09:47:38;6.60;;;2.83;;
43325;SDS011;28920;59.862;30.636;2023-02-26T09:50:09;7.20;;;3.28;;
43325;SDS011;28920;59.862;30.636;2023-02-26T09:52:39;5.43;;;3.10;;
43325;SDS011;28920;59.862;30.636;2023-02-26T09:55:08;5.03;;;2.92;;
43325;SDS011;28920;59.862;30.636;2023-02-26T09:57:38;4.62;;;2.90;;
43325;SDS011;28920;59.862;30.636;2023-02-26T10:00:15;7.25;;;4.10;;
43325;SDS011;28920;59.862;30.636;2023-02-26T10:02:45;7.82;;;3.00;;
43325;SDS011;28920;59.862;30.636;2023-02-26T10:05:17;5.70;;;3.10;;
43325;SDS011;28920;59.862;30.636;2023-02-26T10:07:45;5.15;;;2.97;;
43325;SDS011;28920;59.862;30.636;2023-02-26T10:10:15;8.63;;;2.92;;
43325;SDS011;28920;59.862;30.636;2023-02-26T10:12:43;7.47;;;2.62;;
43325;SDS011;28920;59.862;30.636;2023-02-26T10:15:11;6.47;;;3.17;;
43325;SDS011;28920;59.862;30.636;2023-02-26T10:17:39;4.75;;;2.78;;
43325;SDS011;28920;59.862;30.636;2023-02-26T10:20:09;9.52;;;3.65;;
43325;SDS011;28920;59.862;30.636;2023-02-26T10:22:39;6.82;;;2.85;;
43325;SDS011;28920;59.862;30.636;2023-02-26T10:25:10;5.87;;;2.62;;
43325;SDS011;28920;59.862;30.636;2023-02-26T10:27:45;8.73;;;3.83;;
43325;SDS011;28920;59.862;30.636;2023-02-26T10:30:15;5.20;;;3.55;;
43325;SDS011;28920;59.862;30.636;2023-02-26T10:32:49;5.28;;;3.45;;
43325;SDS011;28920;59.862;30.636;2023-02-26T10:35:18;8.40;;;3.35;;
43325;SDS011;28920;59.862;30.636;2023-02-26T10:37:46;7.00;;;2.75;;
43325;SDS011;28920;59.862;30.636;2023-02-26T10:40:16;6.20;;;3.30;;
43325;SDS011;28920;59.862;30.636;2023-02-26T10:42:45;6.97;;;2.85;;
43325;SDS011;28920;59.862;30.636;2023-02-26T10:45:23;9.10;;;4.65;;
43325;SDS011;28920;59.862;30.636;2023-02-26T10:47:52;8.57;;;3.53;;
43325;SDS011;28920;59.862;30.636;2023-02-26T10:50:23;7.10;;;3.17;;
43325;SDS011;28920;59.862;30.636;2023-02-26T10:52:52;7.03;;;3.35;;
43325;SDS011;28920;59.862;30.636;2023-02-26T10:55:24;5.22;;;3.08;;
43325;SDS011;28920;59.862;30.636;2023-02-26T10:57:54;4.78;;;3.03;;
43325;SDS011;28920;59.862;30.636;2023-02-26T11:00:22;4.87;;;3.08;;
43325;SDS011;28920;59.862;30.636;2023-02-26T11:02:49;4.72;;;2.60;;
43325;SDS011;28920;59.862;30.636;2023-02-26T11:05:17;4.15;;;2.72;;
43325;SDS011;28920;59.862;30.636;2023-02-26T11:07:45;6.18;;;3.90;;
43325;SDS011;28920;59.862;30.636;2023-02-26T11:10:13;6.05;;;2.78;;
43325;SDS011;28920;59.862;30.636;2023-02-26T11:12:41;5.62;;;3.00;;
43325;SDS011;28920;59.862;30.636;2023-02-26T11:15:11;6.47;;;3.47;;
43325;SDS011;28920;59.862;30.636;2023-02-26T11:17:38;5.40;;;3.65;;
43325;SDS011;28920;59.862;30.636;2023-02-26T11:20:12;8.98;;;4.57;;
43325;SDS011;28920;59.862;30.636;2023-02-26T11:22:42;8.63;;;3.35;;
43325;SDS011;28920;59.862;30.636;2023-02-26T11:25:12;9.95;;;3.08;;
43325;SDS011;28920;59.862;30.636;2023-02-26T11:27:39;7.85;;;3.47;;
43325;SDS011;28920;59.862;30.636;2023-02-26T11:30:14;5.90;;;3.33;;
43325;SDS011;28920;59.862;30.636;2023-02-26T11:32:41;8.52;;;3.37;;
43325;SDS011;28920;59.862;30.636;2023-02-26T11:35:12;5.75;;;2.87;;
43325;SDS011;28920;59.862;30.636;2023-02-26T11:37:39;3.62;;;2.37;;
43325;SDS011;28920;59.862;30.636;2023-02-26T11:40:12;4.57;;;2.92;;
43325;SDS011;28920;59.862;30.636;2023-02-26T11:42:41;4.55;;;2.90;;
43325;SDS011;28920;59.862;30.636;2023-02-26T11:45:12;4.40;;;2.75;;
43325;SDS011;28920;59.862;30.636;2023-02-26T11:47:40;6.25;;;2.67;;
43325;SDS011;28920;59.862;30.636;2023-02-26T11:50:11;6.25;;;2.67;;
43325;SDS011;28920;59.862;30.636;2023-02-26T11:52:40;4.37;;;2.50;;
43325;SDS011;28920;59.862;30.636;2023-02-26T11:55:16;3.50;;;2.53;;
43325;SDS011;28920;59.862;30.636;2023-02-26T11:57:43;5.20;;;2.47;;
43325;SDS011;28920;59.862;30.636;2023-02-26T12:00:16;3.85;;;2.25;;
43325;SDS011;28920;59.862;30.636;2023-02-26T12:02:45;4.15;;;2.50;;
43325;SDS011;28920;59.862;30.636;2023-02-26T12:05:13;5.82;;;3.00;;
43325;SDS011;28920;59.862;30.636;2023-02-26T12:07:41;6.47;;;2.60;;
43325;SDS011;28920;59.862;30.636;2023-02-26T12:10:12;7.70;;;3.33;;
43325;SDS011;28920;59.862;30.636;2023-02-26T12:12:43;5.53;;;2.90;;
43325;SDS011;28920;59.862;30.636;2023-02-26T12:15:19;4.55;;;2.53;;
43325;SDS011;28920;59.862;30.636;2023-02-26T12:17:51;4.43;;;2.70;;
43325;SDS011;28920;59.862;30.636;2023-02-26T12:20:23;8.30;;;2.97;;
43325;SDS011;28920;59.862;30.636;2023-02-26T12:22:50;5.07;;;2.50;;
43325;SDS011;28920;59.862;30.636;2023-02-26T12:25:36;4.40;;;2.40;;
43325;SDS011;28920;59.862;30.636;2023-02-26T12:28:17;3.62;;;2.28;;
43325;SDS011;28920;59.862;30.636;2023-02-26T12:30:49;3.85;;;2.00;;
43325;SDS011;28920;59.862;30.636;2023-02-26T12:33:21;4.97;;;2.40;;
43325;SDS011;28920;59.862;30.636;2023-02-26T12:35:57;5.28;;;3.12;;
43325;SDS011;28920;59.862;30.636;2023-02-26T12:38:28;6.62;;;3.28;;
43325;SDS011;28920;59.862;30.636;2023-02-26T12:41:02;6.35;;;3.12;;
43325;SDS011;28920;59.862;30.636;2023-02-26T12:43:33;3.83;;;2.78;;
43325;SDS011;28920;59.862;30.636;2023-02-26T12:46:06;7.12;;;3.40;;
43325;SDS011;28920;59.862;30.636;2023-02-26T12:48:42;4.28;;;2.67;;
43325;SDS011;28920;59.862;30.636;2023-02-26T12:51:14;6.12;;;2.83;;
43325;SDS011;28920;59.862;30.636;2023-02-26T12:56:26;4.15;;;2.87;;
43325;SDS011;28920;59.862;30.636;2023-02-26T12:59:05;6.68;;;3.58;;
43325;SDS011;28920;59.862;30.636;2023-02-26T13:01:38;4.93;;;3.20;;
43325;SDS011;28920;59.862;30.636;2023-02-26T13:04:14;4.03;;;2.67;;
43325;SDS011;28920;59.862;30.636;2023-02-26T13:06:47;5.40;;;2.80;;
43325;SDS011;28920;59.862;30.636;2023-02-26T13:09:18;5.93;;;3.35;;
43325;SDS011;28920;59.862;30.636;2023-02-26T13:11:50;5.95;;;3.70;;
43325;SDS011;28920;59.862;30.636;2023-02-26T13:14:24;4.93;;;3.30;;
43325;SDS011;28920;59.862;30.636;2023-02-26T13:16:56;6.82;;;3.28;;
43325;SDS011;28920;59.862;30.636;2023-02-26T13:19:30;6.62;;;4.18;;
43325;SDS011;28920;59.862;30.636;2023-02-26T13:24:26;4.72;;;2.97;;
43325;SDS011;28920;59.862;30.636;2023-02-26T13:26:55;5.87;;;3.10;;
43325;SDS011;28920;59.862;30.636;2023-02-26T15:57:42;8.52;;;3.92;;
43325;SDS011;28920;59.862;30.636;2023-02-26T16:00:13;6.55;;;3.12;;
43325;SDS011;28920;59.862;30.636;2023-02-26T16:02:48;8.07;;;3.22;;
43325;SDS011;28920;59.862;30.636;2023-02-26T16:05:15;6.80;;;3.33;;
43325;SDS011;28920;59.862;30.636;2023-02-26T16:07:44;5.22;;;3.25;;
43325;SDS011;28920;59.862;30.636;2023-02-26T16:10:15;6.07;;;2.83;;
43325;SDS011;28920;59.862;30.636;2023-02-26T16:12:46;11.60;;;4.62;;
43325;SDS011;28920;59.862;30.636;2023-02-26T16:15:15;6.85;;;3.87;;
43325;SDS011;28920;59.862;30.636;2023-02-26T16:17:47;5.40;;;3.25;;
43325;SDS011;28920;59.862;30.636;2023-02-26T16:22:48;5.68;;;3.20;;
43325;SDS011;28920;59.862;30.636;2023-02-26T16:25:17;6.20;;;3.60;;
43325;SDS011;28920;59.862;30.636;2023-02-26T16:27:51;5.15;;;3.17;;
43325;SDS011;28920;59.862;30.636;2023-02-26T16:30:23;8.30;;;3.67;;
43325;SDS011;28920;59.862;30.636;2023-02-26T16:35:26;5.85;;;3.65;;
43325;SDS011;28920;59.862;30.636;2023-02-26T16:37:56;5.90;;;2.55;;
43325;SDS011;28920;59.862;30.636;2023-02-26T16:40:24;5.40;;;2.92;;
43325;SDS011;28920;59.862;30.636;2023-02-26T16:42:54;4.75;;;2.75;;
43325;SDS011;28920;59.862;30.636;2023-02-26T16:45:43;6.70;;;3.30;;
43325;SDS011;28920;59.862;30.636;2023-02-26T16:48:15;6.65;;;3.30;;
43325;SDS011;28920;59.862;30.636;2023-02-26T16:50:45;7.13;;;3.80;;
43325;SDS011;28920;59.862;30.636;2023-02-26T16:53:19;5.12;;;3.40;;
43325;SDS011;28920;59.862;30.636;2023-02-26T16:55:49;5.12;;;3.00;;
43325;SDS011;28920;59.862;30.636;2023-02-26T16:58:18;6.10;;;3.50;;
43325;SDS011;28920;59.862;30.636;2023-02-26T17:00:49;4.32;;;2.08;;
43325;SDS011;28920;59.862;30.636;2023-02-26T17:03:23;7.18;;;3.15;;
43325;SDS011;28920;59.862;30.636;2023-02-26T17:05:53;7.15;;;3.05;;
43325;SDS011;28920;59.862;30.636;2023-02-26T17:08:25;4.05;;;2.40;;
43325;SDS011;28920;59.862;30.636;2023-02-26T17:10:54;9.00;;;4.72;;
43325;SDS011;28920;59.862;30.636;2023-02-26T17:13:28;6.12;;;3.50;;
43325;SDS011;28920;59.862;30.636;2023-02-26T17:15:58;5.73;;;3.07;;
43325;SDS011;28920;59.862;30.636;2023-02-26T17:18:27;7.68;;;3.65;;
43325;SDS011;28920;59.862;30.636;2023-02-26T17:20:54;7.43;;;3.50;;
43325;SDS011;28920;59.862;30.636;2023-02-26T17:23:22;6.57;;;3.83;;
43325;SDS011;28920;59.862;30.636;2023-02-26T17:25:52;4.10;;;2.58;;